Japan Airlines Virtual Airport Information Service

Hakodate Airport

ICAO: RJCH Country: Japan
Latitude: 41.77 Longitude: 140.822
Latest Arrival : JAL587 (RJTT-RJCH) Latest Departure : JAL586 (RJCH-RJTT)


WX CaptureLIVE
Data provided by noaa.gov | Fetched at 16:21:20

METAR : RJCH 041100Z 32006KT 280V350 9999 FEW020 SCT040 BKN080 M01/M08 Q1015

TAF : RJCH 041106Z 0412/0518 32010KT 9999 -SHSN FEW003 BKN015 TEMPO 0412/0418 0700 SHSN VV003 TEMPO 0418/0421 1500 -SHSN FEW003 BKN006


Runway Data for RJCH
Data provided by openaviationdata.com

Runway ID Mag Var Hdg Length Elevation Surface ILS Freq ILS Id ILS Slope
12 -9 117° 9820 ft 112 ft Asphalt 109.3 IHL 3
30 -9 297° 9820 ft 112 ft Asphalt -- -- --

Hakodate Airport, Japan
Use only for reference purposes



Not for navigational purposes.